createdAt,value
2022-08-04T00:00:17.698Z,19.27
2022-08-04T00:00:40.402Z,19.27
2022-08-04T00:01:02.919Z,19.27
2022-08-04T00:01:37.511Z,19.27
2022-08-04T00:02:10.006Z,19.27
2022-08-04T00:02:42.049Z,19.27
2022-08-04T00:03:11.791Z,19.22
2022-08-04T00:03:45.623Z,19.22
2022-08-04T00:04:17.424Z,19.22
2022-08-04T00:04:40.366Z,19.22
2022-08-04T00:05:02.712Z,19.22
2022-08-04T00:05:37.580Z,19.22
2022-08-04T00:06:09.811Z,19.22
2022-08-04T00:06:41.514Z,19.22
2022-08-04T00:07:11.703Z,19.11
2022-08-04T00:07:45.510Z,19.11
2022-08-04T00:08:17.515Z,19.00
2022-08-04T00:08:40.237Z,19.00
2022-08-04T00:09:02.552Z,19.00
2022-08-04T00:09:37.605Z,19.00
2022-08-04T00:10:09.889Z,19.00
2022-08-04T00:10:41.562Z,19.00
2022-08-04T00:11:15.605Z,19.00
2022-08-04T00:11:45.597Z,19.00
2022-08-04T00:12:17.686Z,19.00
2022-08-04T00:12:44.528Z,19.00
2022-08-04T00:13:03.481Z,19.00
2022-08-04T00:13:37.383Z,19.00
2022-08-04T00:14:03.855Z,19.00
2022-08-04T00:14:42.040Z,19.00
2022-08-04T00:15:14.848Z,19.00
2022-08-04T00:15:46.176Z,19.00
2022-08-04T00:16:17.479Z,19.00
2022-08-04T00:16:44.796Z,18.88
2022-08-04T00:17:02.879Z,18.88
2022-08-04T00:17:37.558Z,18.77
2022-08-04T00:18:10.644Z,18.77
2022-08-04T00:18:41.509Z,18.77
2022-08-04T00:19:13.391Z,18.77
2022-08-04T00:19:45.608Z,18.77
2022-08-04T00:20:22.495Z,18.77
2022-08-04T00:20:41.815Z,18.77
2022-08-04T00:21:05.890Z,18.77
2022-08-04T00:21:42.196Z,18.72
2022-08-04T00:22:10.980Z,18.72
2022-08-04T00:22:41.782Z,18.72
2022-08-04T00:23:13.175Z,18.72
2022-08-04T00:24:12.200Z,18.72
2022-08-04T00:24:16.019Z,18.72
2022-08-04T00:24:38.449Z,18.72
2022-08-04T00:25:06.979Z,18.72
2022-08-04T00:25:38.018Z,18.61
2022-08-04T00:26:11.603Z,18.61
2022-08-04T00:26:41.364Z,18.61
2022-08-04T00:27:12.613Z,18.61
2022-08-04T00:27:45.713Z,18.61
2022-08-04T00:28:19.620Z,18.61
2022-08-04T00:28:42.301Z,18.61
2022-08-04T00:29:04.713Z,18.61
2022-08-04T00:29:37.597Z,18.61
2022-08-04T00:30:12.663Z,18.61
2022-08-04T00:30:41.877Z,18.61
2022-08-04T00:31:12.100Z,18.61
2022-08-04T00:31:54.956Z,18.61
2022-08-04T00:32:33.678Z,18.61
2022-08-04T00:32:40.367Z,18.61
2022-08-04T00:33:02.797Z,18.61
2022-08-04T00:33:37.497Z,18.61
2022-08-04T00:34:09.506Z,18.61
2022-08-04T00:34:41.524Z,18.61
2022-08-04T00:35:12.423Z,18.50
2022-08-04T00:35:45.485Z,18.50
2022-08-04T00:36:17.549Z,18.50
2022-08-04T00:36:40.253Z,18.50
2022-08-04T00:37:02.694Z,18.50
2022-08-04T00:37:37.553Z,18.50
2022-08-04T00:38:09.490Z,18.38
2022-08-04T00:38:42.099Z,18.38
2022-08-04T00:39:14.466Z,18.38
2022-08-04T00:39:45.846Z,18.38
2022-08-04T00:40:17.532Z,18.38
2022-08-04T00:40:40.218Z,18.38
2022-08-04T00:41:06.028Z,18.27
2022-08-04T00:41:38.983Z,18.27
2022-08-04T00:42:09.785Z,18.27
2022-08-04T00:42:58.437Z,18.27
2022-08-04T00:43:13.820Z,18.27
2022-08-04T00:43:45.734Z,18.27
2022-08-04T00:44:23.202Z,18.27
2022-08-04T00:44:50.600Z,18.27
2022-08-04T00:45:21.737Z,18.22
2022-08-04T00:46:15.948Z,18.22
2022-08-04T00:46:26.134Z,18.22
2022-08-04T00:46:48.831Z,18.22
2022-08-04T00:47:11.317Z,18.22
2022-08-04T00:47:46.747Z,18.22
2022-08-04T00:48:17.449Z,18.22
2022-08-04T00:48:40.032Z,18.22
2022-08-04T00:49:03.974Z,18.22
2022-08-04T00:49:37.573Z,18.22
2022-08-04T00:50:10.545Z,18.22
2022-08-04T00:50:41.579Z,18.22
2022-08-04T00:51:11.986Z,18.22
2022-08-04T00:51:46.119Z,18.22
2022-08-04T00:52:32.599Z,18.22
2022-08-04T00:52:40.817Z,18.22
2022-08-04T00:53:03.496Z,18.11
2022-08-04T00:53:39.487Z,18.11
2022-08-04T00:54:10.018Z,18.11
2022-08-04T00:54:41.701Z,18.11
2022-08-04T00:55:11.972Z,18.11
2022-08-04T00:55:46.991Z,18.11
2022-08-04T00:56:17.441Z,18.11
2022-08-04T00:56:40.116Z,18.11
2022-08-04T00:57:04.178Z,18.11
2022-08-04T00:57:37.940Z,18.11
2022-08-04T00:58:09.549Z,18.11
2022-08-04T00:58:41.338Z,18.11
2022-08-04T00:59:12.011Z,18.22
2022-08-04T00:59:45.736Z,18.22
2022-08-04T01:00:18.147Z,18.22
2022-08-04T01:00:40.843Z,18.22
2022-08-04T01:01:03.294Z,18.22
2022-08-04T01:01:44.453Z,18.22
2022-08-04T01:02:10.046Z,18.22
2022-08-04T01:02:45.172Z,18.22
2022-08-04T01:03:12.117Z,18.11
2022-08-04T01:03:45.801Z,18.11
2022-08-04T01:04:22.077Z,18.11
2022-08-04T01:04:40.302Z,18.11
2022-08-04T01:05:02.947Z,18.11
2022-08-04T01:05:37.853Z,18.11
2022-08-04T01:06:09.426Z,18.11
2022-08-04T01:06:41.523Z,18.11
2022-08-04T01:07:11.870Z,18.11
2022-08-04T01:07:45.656Z,18.11
2022-08-04T01:08:17.607Z,18.22
2022-08-04T01:08:40.408Z,18.22
2022-08-04T01:09:02.807Z,18.22
2022-08-04T01:09:54.921Z,18.22
2022-08-04T01:10:06.806Z,18.22
2022-08-04T01:10:41.628Z,18.22
2022-08-04T01:11:11.840Z,18.22
2022-08-04T01:11:57.308Z,18.22
2022-08-04T01:12:17.665Z,18.22
2022-08-04T01:12:40.389Z,18.11
2022-08-04T01:13:02.527Z,18.11
2022-08-04T01:13:37.356Z,18.11
2022-08-04T01:14:09.638Z,18.11
2022-08-04T01:14:41.417Z,18.11
2022-08-04T01:15:12.089Z,18.11
2022-08-04T01:15:59.386Z,18.00
2022-08-04T01:16:18.937Z,18.00
2022-08-04T01:16:40.445Z,18.00
2022-08-04T01:17:02.767Z,18.00
2022-08-04T01:17:37.394Z,18.00
2022-08-04T01:18:09.305Z,18.00
2022-08-04T01:18:41.434Z,18.00
2022-08-04T01:19:11.766Z,18.00
2022-08-04T01:19:45.649Z,18.00
2022-08-04T01:20:17.501Z,18.00
2022-08-04T01:20:40.010Z,18.00
2022-08-04T01:21:03.002Z,17.88
2022-08-04T01:21:37.417Z,17.88
2022-08-04T01:22:09.308Z,17.88
2022-08-04T01:22:41.388Z,17.88
2022-08-04T01:23:11.830Z,18.00
2022-08-04T01:23:45.529Z,18.00
2022-08-04T01:24:17.965Z,18.00
2022-08-04T01:24:40.508Z,18.00
2022-08-04T01:25:04.779Z,18.11
2022-08-04T01:25:38.493Z,18.11
2022-08-04T01:26:41.909Z,18.11
2022-08-04T01:26:57.264Z,18.11
2022-08-04T01:27:10.458Z,18.11
2022-08-04T01:30:38.807Z,18.00
2022-08-04T01:31:07.770Z,18.00
2022-08-04T01:31:46.148Z,18.00
2022-08-04T01:32:18.968Z,18.00
2022-08-04T01:32:40.277Z,18.00
2022-08-04T01:33:09.327Z,17.88
2022-08-04T01:33:31.808Z,17.88
2022-08-04T01:34:09.762Z,17.88
2022-08-04T01:34:41.383Z,17.88
2022-08-04T01:35:15.401Z,17.88
2022-08-04T01:35:47.813Z,17.88
2022-08-04T01:36:19.220Z,17.88
2022-08-04T01:36:40.191Z,17.77
2022-08-04T01:37:02.422Z,17.77
2022-08-04T01:37:37.511Z,17.77
2022-08-04T01:38:18.396Z,17.77
2022-08-04T01:38:41.403Z,17.77
2022-08-04T01:39:11.761Z,17.77
2022-08-04T01:39:45.484Z,17.77
2022-08-04T01:40:17.813Z,17.77
2022-08-04T01:40:40.075Z,17.77
2022-08-04T01:41:02.641Z,17.77
2022-08-04T01:41:37.492Z,17.77
2022-08-04T01:42:09.718Z,17.72
2022-08-04T01:42:41.624Z,17.72
2022-08-04T01:43:11.792Z,17.72
2022-08-04T01:43:45.379Z,17.72
2022-08-04T01:44:19.206Z,17.72
2022-08-04T01:44:41.147Z,17.72
2022-08-04T01:45:03.687Z,17.72
2022-08-04T01:45:37.285Z,17.72
2022-08-04T01:46:09.916Z,17.77
2022-08-04T01:46:41.532Z,17.77
2022-08-04T01:47:11.679Z,17.72
2022-08-04T01:47:45.510Z,17.72
2022-08-04T01:48:17.486Z,17.72
2022-08-04T01:48:40.126Z,17.72
2022-08-04T01:49:02.580Z,17.72
2022-08-04T01:49:40.418Z,17.72
2022-08-04T01:50:09.407Z,17.72
2022-08-04T01:50:41.990Z,17.72
2022-08-04T01:51:11.778Z,17.61
2022-08-04T01:51:45.517Z,17.61
2022-08-04T01:52:20.895Z,17.61
2022-08-04T01:52:41.826Z,17.61
2022-08-04T01:53:04.163Z,17.61
2022-08-04T01:53:37.605Z,17.61
2022-08-04T01:54:09.331Z,17.61
2022-08-04T01:54:41.994Z,17.61
2022-08-04T01:55:07.793Z,17.61
2022-08-04T01:55:55.048Z,17.61
2022-08-04T01:56:18.188Z,17.61
2022-08-04T01:56:40.886Z,17.61
2022-08-04T01:57:38.576Z,17.61
2022-08-04T01:57:48.274Z,17.61
2022-08-04T01:58:08.715Z,17.61
2022-08-04T01:58:43.156Z,17.61
2022-08-04T01:59:13.467Z,17.61
2022-08-04T01:59:46.116Z,17.61
2022-08-04T02:00:17.342Z,17.61
2022-08-04T02:00:40.044Z,17.61
2022-08-04T02:01:05.228Z,17.61
2022-08-04T02:01:37.625Z,17.61
2022-08-04T02:02:10.140Z,17.61
2022-08-04T02:02:42.805Z,17.61
2022-08-04T02:03:12.239Z,17.50
2022-08-04T02:04:19.752Z,17.50
2022-08-04T02:04:33.683Z,17.50
2022-08-04T02:05:05.430Z,17.50
2022-08-04T02:06:03.373Z,17.50
2022-08-04T02:06:09.645Z,17.50
2022-08-04T02:06:41.340Z,17.50
2022-08-04T02:07:11.694Z,17.50
2022-08-04T02:07:45.389Z,17.50
2022-08-04T02:08:17.395Z,17.50
2022-08-04T02:08:40.235Z,17.50
2022-08-04T02:09:02.490Z,17.50
2022-08-04T02:09:53.711Z,17.50
2022-08-04T02:10:09.370Z,17.50
2022-08-04T02:10:41.423Z,17.50
2022-08-04T02:11:11.746Z,17.61
2022-08-04T02:11:45.499Z,17.61
2022-08-04T02:12:17.251Z,17.61
2022-08-04T02:12:40.186Z,17.61
2022-08-04T02:13:02.445Z,17.61
2022-08-04T02:13:37.477Z,17.61
2022-08-04T02:14:03.501Z,17.61
2022-08-04T02:14:42.630Z,17.61
2022-08-04T02:15:13.199Z,17.61
2022-08-04T02:15:46.662Z,17.50
2022-08-04T02:16:17.486Z,17.50
2022-08-04T02:16:40.032Z,17.50
2022-08-04T02:17:02.571Z,17.38
2022-08-04T02:17:37.235Z,17.38
2022-08-04T02:18:09.670Z,17.38
2022-08-04T02:18:41.296Z,17.27
2022-08-04T02:19:14.638Z,17.27
2022-08-04T02:19:45.496Z,17.27
2022-08-04T02:20:18.631Z,17.27
2022-08-04T02:20:41.212Z,17.27
2022-08-04T02:21:06.207Z,17.27
2022-08-04T02:21:42.585Z,17.27
2022-08-04T02:22:09.243Z,17.22
2022-08-04T02:22:41.413Z,17.22
2022-08-04T02:23:11.891Z,17.22
2022-08-04T02:23:49.474Z,17.22
2022-08-04T02:24:12.074Z,17.22
2022-08-04T02:24:43.404Z,17.22
2022-08-04T02:25:23.776Z,17.22
2022-08-04T02:25:44.307Z,17.22
2022-08-04T02:26:06.671Z,17.22
2022-08-04T02:26:41.256Z,17.22
2022-08-04T02:27:12.060Z,17.22
2022-08-04T02:27:59.871Z,17.22
2022-08-04T02:28:17.232Z,17.22
2022-08-04T02:28:40.051Z,17.22
2022-08-04T02:29:02.364Z,17.22
2022-08-04T02:29:37.394Z,17.27
2022-08-04T02:30:09.664Z,17.38
2022-08-04T02:30:41.331Z,17.38
2022-08-04T02:31:11.719Z,17.38
2022-08-04T02:31:45.594Z,17.38
2022-08-04T02:32:17.214Z,17.38
2022-08-04T02:32:39.920Z,17.38
2022-08-04T02:33:03.765Z,17.38
2022-08-04T02:33:37.492Z,17.38
2022-08-04T02:34:09.368Z,17.50
2022-08-04T02:34:41.748Z,17.50
2022-08-04T02:35:11.749Z,17.50
2022-08-04T02:35:45.317Z,17.50
2022-08-04T02:36:17.403Z,17.50
2022-08-04T02:36:40.390Z,17.50
2022-08-04T02:37:02.497Z,17.38
2022-08-04T02:37:37.343Z,17.38
2022-08-04T02:38:09.363Z,17.38
2022-08-04T02:38:41.263Z,17.38
2022-08-04T02:39:11.765Z,17.38
2022-08-04T02:39:49.229Z,17.38
2022-08-04T02:40:17.250Z,17.38
2022-08-04T02:40:40.082Z,17.27
2022-08-04T02:41:02.880Z,17.27
2022-08-04T02:41:37.375Z,17.27
2022-08-04T02:42:09.565Z,17.27
2022-08-04T02:42:41.339Z,17.27
2022-08-04T02:43:11.786Z,17.38
2022-08-04T02:43:50.795Z,17.38
2022-08-04T02:44:17.326Z,17.38
2022-08-04T02:44:40.046Z,17.38
2022-08-04T02:45:02.451Z,17.27
2022-08-04T02:45:37.421Z,17.27
2022-08-04T02:46:17.635Z,17.27
2022-08-04T02:46:41.315Z,17.27
2022-08-04T02:47:11.955Z,17.27
2022-08-04T02:48:08.289Z,17.27
2022-08-04T02:48:34.054Z,17.27
2022-08-04T02:49:06.908Z,17.27
2022-08-04T02:49:37.308Z,17.27
2022-08-04T02:50:09.529Z,17.27
2022-08-04T02:50:41.253Z,17.27
2022-08-04T02:51:12.028Z,17.27
2022-08-04T02:51:45.456Z,17.27
2022-08-04T02:52:18.879Z,17.27
2022-08-04T02:52:41.544Z,17.27
2022-08-04T02:53:03.473Z,17.27
2022-08-04T02:53:37.923Z,17.27
2022-08-04T02:54:09.669Z,17.22
2022-08-04T02:54:42.159Z,17.22
2022-08-04T02:55:11.691Z,17.22
2022-08-04T02:55:50.953Z,17.22
2022-08-04T02:56:17.289Z,17.22
2022-08-04T02:56:40.058Z,17.22
2022-08-04T02:57:04.301Z,17.22
2022-08-04T02:57:37.312Z,17.22
2022-08-04T02:58:09.902Z,17.22
2022-08-04T02:58:41.946Z,17.22
2022-08-04T02:59:12.270Z,17.22
2022-08-04T02:59:46.035Z,17.27
2022-08-04T03:00:18.507Z,17.27
2022-08-04T03:00:41.300Z,17.27
2022-08-04T03:01:03.715Z,17.38
2022-08-04T03:01:37.868Z,17.38
2022-08-04T03:02:09.432Z,17.38
2022-08-04T03:02:41.619Z,17.50
2022-08-04T03:03:12.878Z,17.50
2022-08-04T03:03:46.773Z,17.50
2022-08-04T03:04:24.446Z,17.50
2022-08-04T03:04:40.093Z,17.50
2022-08-04T03:05:02.908Z,17.50
2022-08-04T03:06:00.541Z,17.50
2022-08-04T03:06:10.666Z,17.50
2022-08-04T03:06:41.332Z,17.38
2022-08-04T03:07:14.495Z,17.50
2022-08-04T03:07:45.537Z,17.50
2022-08-04T03:08:17.319Z,17.50
2022-08-04T03:08:40.018Z,17.50
2022-08-04T03:09:03.654Z,17.50
2022-08-04T03:09:41.010Z,17.50
2022-08-04T03:10:10.911Z,17.50
2022-08-04T03:10:42.357Z,17.38
2022-08-04T03:11:13.360Z,17.27
2022-08-04T03:11:50.930Z,17.27
2022-08-04T03:12:17.467Z,17.27
2022-08-04T03:12:40.131Z,17.22
2022-08-04T03:13:02.904Z,17.11
2022-08-04T03:13:37.393Z,17.11
2022-08-04T03:14:14.140Z,17.00
2022-08-04T03:14:41.694Z,17.00
2022-08-04T03:15:13.635Z,17.00
2022-08-04T03:15:45.394Z,17.00
2022-08-04T03:16:17.434Z,17.11
2022-08-04T03:16:40.058Z,17.11
2022-08-04T03:17:02.723Z,17.11
2022-08-04T03:17:37.262Z,17.11
2022-08-04T03:18:09.294Z,17.00
2022-08-04T03:18:41.636Z,17.00
2022-08-04T03:19:11.794Z,17.00
2022-08-04T03:19:49.046Z,17.00
2022-08-04T03:20:11.383Z,17.00
2022-08-04T03:20:43.303Z,17.00
2022-08-04T03:21:21.383Z,17.00
2022-08-04T03:21:44.015Z,17.00
2022-08-04T03:22:06.376Z,16.88
2022-08-04T03:22:59.845Z,16.88
2022-08-04T03:23:31.308Z,16.88
2022-08-04T03:23:51.760Z,16.88
2022-08-04T03:24:21.996Z,16.88
2022-08-04T03:24:49.375Z,16.88
2022-08-04T03:25:15.536Z,16.88
2022-08-04T03:25:56.522Z,16.88
2022-08-04T03:26:07.786Z,16.88
2022-08-04T03:26:41.353Z,16.77
2022-08-04T03:27:11.886Z,16.77
2022-08-04T03:27:45.607Z,16.77
2022-08-04T03:28:17.350Z,16.77
2022-08-04T03:28:40.087Z,16.77
2022-08-04T03:29:02.474Z,16.77
2022-08-04T03:29:37.604Z,16.77
2022-08-04T03:30:09.709Z,16.77
2022-08-04T03:30:41.198Z,16.72
2022-08-04T03:31:11.779Z,16.72
2022-08-04T03:31:45.248Z,16.72
2022-08-04T03:32:17.420Z,16.72
2022-08-04T03:32:40.214Z,16.72
2022-08-04T03:33:03.091Z,16.72
2022-08-04T03:33:37.566Z,16.72
2022-08-04T03:34:09.200Z,16.72
2022-08-04T03:34:41.258Z,16.72
2022-08-04T03:35:13.469Z,16.72
2022-08-04T03:35:45.182Z,16.72
2022-08-04T03:36:17.279Z,16.72
2022-08-04T03:36:40.259Z,16.72
2022-08-04T03:37:03.111Z,16.72
2022-08-04T03:37:37.151Z,16.72
2022-08-04T03:38:09.366Z,16.72
2022-08-04T03:38:41.208Z,16.72
2022-08-04T03:39:12.309Z,16.72
2022-08-04T03:39:45.255Z,16.72
2022-08-04T03:40:20.821Z,16.72
2022-08-04T03:40:40.145Z,16.72
2022-08-04T03:41:03.896Z,16.72
2022-08-04T03:41:51.930Z,16.72
2022-08-04T03:42:12.113Z,16.72
2022-08-04T03:42:41.291Z,16.72
2022-08-04T03:43:57.786Z,16.72
2022-08-04T03:44:01.067Z,16.77
2022-08-04T03:44:33.726Z,16.77
2022-08-04T03:45:23.585Z,16.77
2022-08-04T03:45:37.472Z,16.88
2022-08-04T03:46:09.387Z,16.88
2022-08-04T03:46:41.247Z,16.88
2022-08-04T03:47:11.738Z,16.88
2022-08-04T03:47:45.768Z,16.88
2022-08-04T03:48:17.263Z,16.88
2022-08-04T03:48:39.753Z,16.88
2022-08-04T03:49:02.750Z,16.88
2022-08-04T03:49:37.388Z,16.88
2022-08-04T03:50:09.297Z,16.88
2022-08-04T03:50:41.629Z,16.77
2022-08-04T03:51:35.016Z,16.77
2022-08-04T03:51:45.386Z,16.77
2022-08-04T03:52:17.788Z,16.77
2022-08-04T03:52:40.623Z,16.77
2022-08-04T03:53:02.747Z,16.77
2022-08-04T03:53:37.339Z,16.77
2022-08-04T03:54:09.518Z,16.77
2022-08-04T03:54:41.247Z,16.72
2022-08-04T03:55:11.771Z,16.72
2022-08-04T03:55:45.683Z,16.72
2022-08-04T03:56:17.419Z,16.72
2022-08-04T03:56:40.251Z,16.72
2022-08-04T03:57:02.497Z,16.72
2022-08-04T03:57:37.319Z,16.72
2022-08-04T03:58:09.282Z,16.72
2022-08-04T03:58:41.382Z,16.72
2022-08-04T03:59:12.250Z,16.61
2022-08-04T03:59:48.880Z,16.61
2022-08-04T04:00:17.229Z,16.61
2022-08-04T04:00:41.596Z,16.61
2022-08-04T04:01:03.883Z,16.61
2022-08-04T04:02:01.359Z,16.61
2022-08-04T04:02:09.437Z,16.61
2022-08-04T04:02:43.132Z,16.61
2022-08-04T04:03:12.359Z,16.61
2022-08-04T04:03:45.192Z,16.61
2022-08-04T04:04:17.298Z,16.61
2022-08-04T04:04:40.501Z,16.61
2022-08-04T04:05:02.854Z,16.61
2022-08-04T04:05:41.736Z,16.61
2022-08-04T04:06:10.192Z,16.61
2022-08-04T04:06:41.295Z,16.61
2022-08-04T04:07:11.754Z,16.61
2022-08-04T04:07:45.222Z,16.61
2022-08-04T04:08:23.647Z,16.61
2022-08-04T04:08:40.578Z,16.61
2022-08-04T04:09:03.143Z,16.61
2022-08-04T04:09:57.040Z,16.61
2022-08-04T04:10:09.311Z,16.61
2022-08-04T04:10:41.158Z,16.61
2022-08-04T04:11:11.751Z,16.72
2022-08-04T04:11:55.391Z,16.72
2022-08-04T04:12:17.411Z,16.72
2022-08-04T04:12:40.255Z,16.72
2022-08-04T04:13:02.637Z,16.72
2022-08-04T04:13:37.225Z,16.72
2022-08-04T04:14:09.345Z,16.72
2022-08-04T04:14:41.260Z,16.77
2022-08-04T04:15:11.942Z,16.77
2022-08-04T04:15:49.826Z,16.72
2022-08-04T04:16:17.183Z,16.72
2022-08-04T04:16:40.093Z,16.72
2022-08-04T04:17:02.557Z,16.72
2022-08-04T04:17:37.459Z,16.72
2022-08-04T04:18:09.430Z,16.72
2022-08-04T04:18:37.309Z,16.72
2022-08-04T04:19:12.574Z,16.72
2022-08-04T04:19:45.888Z,16.72
2022-08-04T04:20:17.483Z,16.72
2022-08-04T04:20:40.253Z,16.72
2022-08-04T04:21:02.795Z,16.72
2022-08-04T04:21:41.428Z,16.72
2022-08-04T04:22:10.058Z,16.72
2022-08-04T04:22:41.420Z,16.72
2022-08-04T04:23:11.966Z,16.72
2022-08-04T04:23:45.272Z,16.72
2022-08-04T04:24:17.271Z,16.72
2022-08-04T04:24:40.080Z,16.72
2022-08-04T04:25:09.342Z,16.72
2022-08-04T04:25:32.030Z,16.72
2022-08-04T04:26:09.723Z,16.77
2022-08-04T04:26:41.277Z,16.77
2022-08-04T04:27:12.122Z,16.77
2022-08-04T04:27:45.374Z,16.77
2022-08-04T04:28:46.489Z,16.77
2022-08-04T04:28:49.328Z,16.77
2022-08-04T04:29:21.283Z,16.77
2022-08-04T04:29:44.115Z,16.77
2022-08-04T04:30:06.628Z,16.77
2022-08-04T04:30:41.403Z,16.77
2022-08-04T04:31:11.834Z,16.77
2022-08-04T04:31:45.746Z,16.88
2022-08-04T04:32:17.535Z,16.88
2022-08-04T04:32:40.278Z,16.88
2022-08-04T04:33:02.634Z,16.88
2022-08-04T04:33:39.223Z,17.00
2022-08-04T04:34:09.267Z,17.00
2022-08-04T04:34:45.908Z,17.00
2022-08-04T04:35:11.793Z,17.00
2022-08-04T04:35:45.660Z,17.00
2022-08-04T04:36:17.265Z,17.11
2022-08-04T04:36:40.045Z,17.11
2022-08-04T04:37:02.315Z,17.11
2022-08-04T04:37:39.787Z,17.11
2022-08-04T04:38:09.200Z,17.11
2022-08-04T04:38:41.235Z,17.11
2022-08-04T04:39:11.913Z,17.11
2022-08-04T04:39:45.191Z,17.11
2022-08-04T04:40:17.168Z,17.22
2022-08-04T04:40:40.126Z,17.22
2022-08-04T04:41:02.822Z,17.22
2022-08-04T04:41:37.224Z,17.22
2022-08-04T04:42:09.239Z,17.22
2022-08-04T04:42:41.151Z,17.22
2022-08-04T04:43:11.939Z,17.22
2022-08-04T04:43:51.759Z,17.27
2022-08-04T04:44:17.267Z,17.27
2022-08-04T04:44:40.516Z,17.27
2022-08-04T04:45:02.460Z,17.27
2022-08-04T04:45:37.343Z,17.27
2022-08-04T04:46:10.247Z,17.27
2022-08-04T04:46:41.727Z,17.27
2022-08-04T04:47:11.762Z,17.27
2022-08-04T04:48:09.672Z,17.27
2022-08-04T04:48:17.314Z,17.38
2022-08-04T04:48:41.112Z,17.38
2022-08-04T04:49:03.542Z,17.38
2022-08-04T04:49:37.753Z,17.50
2022-08-04T04:50:09.198Z,17.50
2022-08-04T04:50:41.235Z,17.50
2022-08-04T04:51:11.795Z,17.61
2022-08-04T04:51:45.471Z,17.61
2022-08-04T04:52:17.321Z,17.61
2022-08-04T04:52:42.916Z,17.61
2022-08-04T04:53:02.310Z,17.61
2022-08-04T04:53:37.336Z,17.61
2022-08-04T04:54:09.319Z,17.72
2022-08-04T04:54:41.792Z,17.72
2022-08-04T04:55:11.765Z,17.72
2022-08-04T04:55:48.152Z,17.72
2022-08-04T04:56:17.223Z,17.72
2022-08-04T04:56:41.971Z,17.72
2022-08-04T04:57:02.219Z,17.77
2022-08-04T04:57:54.789Z,17.77
2022-08-04T04:58:09.251Z,17.77
2022-08-04T04:58:42.230Z,17.77
2022-08-04T04:59:11.883Z,17.77
2022-08-04T04:59:45.401Z,17.88
2022-08-04T05:00:17.185Z,17.88
2022-08-04T05:00:40.491Z,17.88
2022-08-04T05:01:02.527Z,18.00
2022-08-04T05:01:37.355Z,18.00
2022-08-04T05:02:09.193Z,18.00
2022-08-04T05:02:42.637Z,18.00
2022-08-04T05:03:11.865Z,18.00
2022-08-04T05:03:45.437Z,18.11
2022-08-04T05:04:17.131Z,18.11
2022-08-04T05:04:39.805Z,18.11
2022-08-04T05:05:02.332Z,18.11
2022-08-04T05:05:37.289Z,18.11
2022-08-04T05:06:09.176Z,18.11
2022-08-04T05:06:43.103Z,18.11
2022-08-04T05:07:11.926Z,18.11
2022-08-04T05:07:45.112Z,18.11
2022-08-04T05:08:44.659Z,18.11
2022-08-04T05:08:53.840Z,18.11
2022-08-04T05:09:21.394Z,18.11
2022-08-04T05:09:44.459Z,18.22
2022-08-04T05:10:06.708Z,18.22
2022-08-04T05:10:41.464Z,18.22
2022-08-04T05:11:11.939Z,18.22
2022-08-04T05:11:45.230Z,18.22
2022-08-04T05:12:53.791Z,18.22
2022-08-04T05:14:42.114Z,18.27
2022-08-04T05:15:12.006Z,18.38
2022-08-04T05:15:45.186Z,18.38
2022-08-04T05:16:17.228Z,18.38
2022-08-04T05:16:40.337Z,18.38
2022-08-04T05:17:02.834Z,18.50
2022-08-04T05:17:38.635Z,18.50
2022-08-04T05:18:12.774Z,18.50
2022-08-04T05:18:41.086Z,18.50
2022-08-04T05:19:11.888Z,18.50
2022-08-04T05:19:45.377Z,18.50
2022-08-04T05:20:17.722Z,18.50
2022-08-04T05:20:39.963Z,18.50
2022-08-04T05:21:02.440Z,18.50
2022-08-04T05:21:37.191Z,18.50
2022-08-04T05:22:13.925Z,18.50
2022-08-04T05:22:41.426Z,18.50
2022-08-04T05:23:11.803Z,18.61
2022-08-04T05:23:45.302Z,18.61
2022-08-04T05:24:17.246Z,18.61
2022-08-04T05:24:43.127Z,18.61
2022-08-04T05:25:06.394Z,18.72
2022-08-04T05:25:37.285Z,18.72
2022-08-04T05:26:09.222Z,18.72
2022-08-04T05:26:41.402Z,18.77
2022-08-04T05:27:11.946Z,18.77
2022-08-04T05:27:45.453Z,18.77
2022-08-04T05:28:22.733Z,18.77
2022-08-04T05:28:39.788Z,18.77
2022-08-04T05:29:02.288Z,18.77
2022-08-04T05:29:37.158Z,18.72
2022-08-04T05:30:09.969Z,18.72
2022-08-04T05:30:41.314Z,18.72
2022-08-04T05:31:11.776Z,18.72
2022-08-04T05:31:45.926Z,18.77
2022-08-04T05:32:17.286Z,18.77
2022-08-04T05:32:40.918Z,18.77
2022-08-04T05:33:03.189Z,18.88
2022-08-04T05:33:37.665Z,18.88
2022-08-04T05:34:09.192Z,18.88
2022-08-04T05:34:41.215Z,18.88
2022-08-04T05:35:11.845Z,18.88
2022-08-04T05:36:18.076Z,18.88
2022-08-04T05:36:40.946Z,19.00
2022-08-04T05:37:05.191Z,19.00
2022-08-04T05:37:37.637Z,19.00
2022-08-04T05:38:09.412Z,19.11
2022-08-04T05:38:41.223Z,19.11
2022-08-04T05:39:12.650Z,19.22
2022-08-04T05:39:47.585Z,19.22
2022-08-04T05:40:22.868Z,19.22
2022-08-04T05:40:39.935Z,19.22
2022-08-04T05:41:02.910Z,19.22
2022-08-04T05:41:45.529Z,19.22
2022-08-04T05:42:09.191Z,19.27
2022-08-04T05:42:41.293Z,19.27
2022-08-04T05:43:11.871Z,19.27
2022-08-04T05:43:47.435Z,19.27
2022-08-04T05:44:17.139Z,19.38
2022-08-04T05:44:39.851Z,19.38
2022-08-04T05:45:02.342Z,19.38
2022-08-04T05:45:39.048Z,19.38
2022-08-04T05:46:09.247Z,19.38
2022-08-04T05:46:41.055Z,19.38
2022-08-04T05:47:11.883Z,19.38
2022-08-04T05:47:50.642Z,19.50
2022-08-04T05:48:17.313Z,19.50
2022-08-04T05:48:40.028Z,19.50
2022-08-04T05:49:02.530Z,19.50
2022-08-04T05:49:39.479Z,19.50
2022-08-04T05:50:11.111Z,19.61
2022-08-04T05:50:42.107Z,19.61
2022-08-04T05:51:11.812Z,19.61
2022-08-04T05:51:48.153Z,19.61
2022-08-04T05:52:23.464Z,19.72
2022-08-04T05:52:44.233Z,19.72
2022-08-04T05:53:24.746Z,19.77
2022-08-04T05:53:44.059Z,19.77
2022-08-04T05:54:06.362Z,19.77
2022-08-04T05:54:41.222Z,19.72
2022-08-04T05:55:11.782Z,19.72
2022-08-04T05:55:57.341Z,19.72
2022-08-04T05:56:17.114Z,19.72
2022-08-04T05:56:41.073Z,19.77
2022-08-04T05:57:03.446Z,19.77
2022-08-04T05:57:37.209Z,19.88
2022-08-04T05:58:09.238Z,20.00
2022-08-04T05:58:41.082Z,20.00
2022-08-04T05:59:11.877Z,20.11
2022-08-04T05:59:45.135Z,20.11
2022-08-04T06:00:39.060Z,20.11
2022-08-04T06:00:51.481Z,20.11
2022-08-04T06:01:21.306Z,20.22
2022-08-04T06:01:55.910Z,20.27
2022-08-04T06:02:06.306Z,20.27
2022-08-04T06:02:41.290Z,20.38
2022-08-04T06:03:16.422Z,20.38
2022-08-04T06:03:45.206Z,20.50
2022-08-04T06:04:17.584Z,20.50
2022-08-04T06:04:40.115Z,20.50
2022-08-04T06:05:02.474Z,20.72
2022-08-04T06:05:37.270Z,20.72
2022-08-04T06:06:06.110Z,20.77
2022-08-04T06:06:41.650Z,20.88
2022-08-04T06:07:21.417Z,21.00
2022-08-04T06:08:12.725Z,21.00
2022-08-04T06:08:20.504Z,21.11
2022-08-04T06:08:40.630Z,21.22
2022-08-04T06:09:03.477Z,21.27
2022-08-04T06:09:38.391Z,21.27
2022-08-04T06:10:09.240Z,21.27
2022-08-04T06:10:43.582Z,21.27
2022-08-04T06:11:12.056Z,21.27
2022-08-04T06:12:00.255Z,21.38
2022-08-04T06:12:18.740Z,21.38
2022-08-04T06:12:41.572Z,21.38
2022-08-04T06:13:07.204Z,21.38
2022-08-04T06:13:49.204Z,21.38
2022-08-04T06:14:09.755Z,21.50
2022-08-04T06:14:41.307Z,21.50
2022-08-04T06:15:12.488Z,21.50
2022-08-04T06:15:46.293Z,21.50
2022-08-04T06:16:28.935Z,21.50
2022-08-04T06:16:39.711Z,21.61
2022-08-04T06:17:02.478Z,21.61
2022-08-04T06:18:35.217Z,21.61
2022-08-04T06:20:19.281Z,22.00
2022-08-04T06:20:49.912Z,22.00
2022-08-04T06:21:21.449Z,22.11
2022-08-04T06:21:44.099Z,22.22
2022-08-04T06:22:06.536Z,22.27
2022-08-04T06:22:41.090Z,22.50
2022-08-04T06:23:11.806Z,22.50
2022-08-04T06:23:56.172Z,22.61
2022-08-04T06:24:17.038Z,22.61
2022-08-04T06:24:40.095Z,22.61
2022-08-04T06:25:07.918Z,22.61
2022-08-04T06:25:37.227Z,22.61
2022-08-04T06:26:09.070Z,22.61
2022-08-04T06:26:41.195Z,22.61
2022-08-04T06:27:11.938Z,22.50
2022-08-04T06:27:45.164Z,22.50
2022-08-04T06:28:17.025Z,22.61
2022-08-04T06:28:39.892Z,22.61
2022-08-04T06:29:02.126Z,22.61
2022-08-04T06:29:37.266Z,22.72
2022-08-04T06:30:09.644Z,22.77
2022-08-04T06:30:41.153Z,22.77
2022-08-04T06:32:28.279Z,22.88
2022-08-04T06:32:44.913Z,23.27
2022-08-04T06:33:21.611Z,23.38
2022-08-04T06:33:55.003Z,23.38
2022-08-04T06:34:06.576Z,23.50
2022-08-04T06:34:41.500Z,23.61
2022-08-04T06:35:12.468Z,23.77
2022-08-04T06:35:46.560Z,23.77
2022-08-04T06:36:17.139Z,23.77